createdAt,value
2016-11-12T00:00:39.472Z,0
2016-11-12T00:01:51.972Z,0
2016-11-12T00:03:04.928Z,0
2016-11-12T00:04:18.491Z,0
2016-11-12T00:05:32.145Z,0
2016-11-12T00:06:45.749Z,0
2016-11-12T00:07:59.316Z,0
2016-11-12T00:09:12.914Z,0
2016-11-12T00:10:25.403Z,0
2016-11-12T00:11:38.448Z,0
2016-11-12T00:12:52.036Z,0
2016-11-12T00:14:05.618Z,0
2016-11-12T00:15:18.168Z,0
2016-11-12T00:16:30.696Z,0
2016-11-12T00:17:43.731Z,0
2016-11-12T00:18:57.276Z,0
2016-11-12T00:20:10.899Z,0
2016-11-12T00:21:24.454Z,0
2016-11-12T00:22:38.032Z,0
2016-11-12T00:23:51.749Z,0
2016-11-12T00:25:04.379Z,0
2016-11-12T00:26:17.500Z,0
2016-11-12T00:27:31.109Z,0
2016-11-12T00:28:44.729Z,0
2016-11-12T00:29:58.310Z,0
2016-11-12T00:31:11.931Z,0
2016-11-12T00:32:24.427Z,0
2016-11-12T00:33:38.009Z,0
2016-11-12T00:34:51.615Z,0
2016-11-12T00:36:04.174Z,0
2016-11-12T00:37:17.248Z,0
2016-11-12T00:38:30.897Z,0
2016-11-12T00:39:44.511Z,0
2016-11-12T00:40:57.066Z,0
2016-11-12T00:42:09.607Z,0
2016-11-12T00:43:23.150Z,0
2016-11-12T00:44:36.735Z,0
2016-11-12T00:45:49.764Z,0
2016-11-12T00:47:03.305Z,0
2016-11-12T00:48:16.782Z,0
2016-11-12T00:49:30.350Z,0
2016-11-12T00:50:43.375Z,0
2016-11-12T00:51:56.445Z,0
2016-11-12T00:53:10.050Z,0
2016-11-12T00:54:23.612Z,0
2016-11-12T00:55:36.691Z,0
2016-11-12T00:56:49.198Z,0
2016-11-12T00:58:02.914Z,0
2016-11-12T00:59:16.543Z,0
2016-11-12T01:00:30.125Z,0
2016-11-12T01:01:43.198Z,0
2016-11-12T01:02:56.388Z,0
2016-11-12T01:04:09.457Z,0
2016-11-12T01:05:20.912Z,0
2016-11-12T01:06:34.511Z,0
2016-11-12T01:07:48.126Z,0
2016-11-12T01:09:01.256Z,0
2016-11-12T01:10:14.288Z,0
2016-11-12T01:11:27.780Z,0
2016-11-12T01:12:40.881Z,0
2016-11-12T01:13:53.389Z,0
2016-11-12T01:15:07.013Z,0
2016-11-12T01:16:20.026Z,0
2016-11-12T01:17:32.501Z,0
2016-11-12T01:19:16.136Z,0
2016-11-12T01:20:28.630Z,0
2016-11-12T01:21:42.248Z,0
2016-11-12T01:22:55.847Z,0
2016-11-12T01:24:09.433Z,0
2016-11-12T01:25:22.514Z,0
2016-11-12T01:26:35.010Z,0
2016-11-12T01:27:46.937Z,0
2016-11-12T01:29:00.595Z,0
2016-11-12T01:30:13.216Z,0
2016-11-12T01:31:26.759Z,0
2016-11-12T01:32:39.856Z,0
2016-11-12T01:33:52.959Z,0
2016-11-12T01:35:05.517Z,0
2016-11-12T01:36:18.674Z,0
2016-11-12T01:37:30.606Z,0
2016-11-12T01:38:43.101Z,0
2016-11-12T01:39:56.745Z,0
2016-11-12T01:41:09.278Z,0
2016-11-12T01:42:22.836Z,0
2016-11-12T01:43:35.823Z,0
2016-11-12T01:44:48.354Z,0
2016-11-12T01:46:01.339Z,0
2016-11-12T01:47:14.435Z,0
2016-11-12T01:48:27.479Z,0
2016-11-12T01:49:41.146Z,0
2016-11-12T01:50:54.162Z,0
2016-11-12T01:52:06.686Z,0
2016-11-12T01:53:19.786Z,0
2016-11-12T01:54:33.337Z,0
2016-11-12T01:55:46.852Z,0
2016-11-12T01:57:00.419Z,0
2016-11-12T01:58:13.540Z,0
2016-11-12T01:59:26.097Z,0
2016-11-12T02:00:39.719Z,0
2016-11-12T02:01:52.158Z,0
2016-11-12T02:03:04.699Z,0
2016-11-12T02:04:17.270Z,0
2016-11-12T02:05:30.328Z,0
2016-11-12T02:06:43.363Z,0
2016-11-12T02:07:56.410Z,0
2016-11-12T02:09:09.983Z,0
2016-11-12T02:10:23.640Z,0
2016-11-12T02:11:37.237Z,0
2016-11-12T02:12:50.811Z,0
2016-11-12T02:14:03.839Z,0
2016-11-12T02:15:17.329Z,0
2016-11-12T02:16:30.878Z,0
2016-11-12T02:17:44.517Z,0
2016-11-12T02:18:57.609Z,0
2016-11-12T02:20:11.206Z,0
2016-11-12T02:21:24.233Z,0
2016-11-12T02:22:36.744Z,0
2016-11-12T02:23:50.362Z,0
2016-11-12T02:25:03.930Z,0
2016-11-12T02:26:17.563Z,0
2016-11-12T02:27:30.661Z,0
2016-11-12T02:28:43.705Z,0
2016-11-12T02:29:57.325Z,0
2016-11-12T02:31:10.839Z,0
2016-11-12T02:32:23.346Z,0
2016-11-12T02:33:36.367Z,0
2016-11-12T02:34:49.419Z,0
2016-11-12T02:36:02.590Z,0
2016-11-12T02:37:16.157Z,0
2016-11-12T02:38:28.636Z,0
2016-11-12T02:39:41.152Z,0
2016-11-12T02:40:53.687Z,0
2016-11-12T02:42:06.659Z,0
2016-11-12T02:43:19.693Z,0
2016-11-12T02:44:33.223Z,0
2016-11-12T02:45:46.251Z,0
2016-11-12T02:46:59.264Z,0
2016-11-12T02:48:11.841Z,0
2016-11-12T02:49:25.376Z,0
2016-11-12T02:50:37.866Z,0
2016-11-12T02:51:50.336Z,0
2016-11-12T02:53:03.892Z,0
2016-11-12T02:54:16.945Z,0
2016-11-12T02:55:29.393Z,0
2016-11-12T02:56:41.952Z,0
2016-11-12T02:57:55.643Z,0
2016-11-12T02:59:09.264Z,0
2016-11-12T03:00:22.859Z,0
2016-11-12T03:01:35.799Z,0
2016-11-12T03:02:49.396Z,0
2016-11-12T03:04:03.013Z,0
2016-11-12T03:05:16.627Z,0
2016-11-12T03:06:28.644Z,0
2016-11-12T03:07:42.225Z,0
2016-11-12T03:08:55.244Z,0
2016-11-12T03:10:08.279Z,0
2016-11-12T03:11:21.292Z,0
2016-11-12T03:12:34.799Z,0
2016-11-12T03:13:48.364Z,0
2016-11-12T03:15:01.500Z,0
2016-11-12T03:16:15.045Z,0
2016-11-12T03:17:27.438Z,0
2016-11-12T03:18:40.455Z,0
2016-11-12T03:19:53.518Z,0
2016-11-12T03:21:05.991Z,0
2016-11-12T03:22:17.979Z,0
2016-11-12T03:23:31.068Z,0
2016-11-12T03:24:44.566Z,0
2016-11-12T03:25:57.601Z,0
2016-11-12T03:27:11.239Z,0
2016-11-12T03:28:24.862Z,0
2016-11-12T03:29:37.337Z,0
2016-11-12T03:30:50.421Z,0
2016-11-12T03:32:03.538Z,0
2016-11-12T03:33:17.235Z,0
2016-11-12T03:34:30.810Z,0
2016-11-12T03:35:43.405Z,0
2016-11-12T03:36:56.542Z,0
2016-11-12T03:38:09.636Z,0
2016-11-12T03:39:22.136Z,0
2016-11-12T03:40:35.797Z,0
2016-11-12T03:41:49.438Z,0
2016-11-12T03:43:01.946Z,0
2016-11-12T03:44:15.487Z,0
2016-11-12T03:45:28.557Z,0
2016-11-12T03:46:41.036Z,0
2016-11-12T03:47:53.518Z,0
2016-11-12T03:49:06.560Z,0
2016-11-12T03:50:19.610Z,0
2016-11-12T03:51:32.574Z,0
2016-11-12T03:52:45.676Z,0
2016-11-12T03:53:59.259Z,0
2016-11-12T03:55:12.817Z,0
2016-11-12T03:56:26.436Z,0
2016-11-12T03:57:39.015Z,0
2016-11-12T03:58:52.537Z,0
2016-11-12T04:00:05.109Z,0
2016-11-12T04:01:18.727Z,0
2016-11-12T04:02:31.724Z,0
2016-11-12T04:03:44.827Z,0
2016-11-12T04:04:57.375Z,0
2016-11-12T04:06:10.359Z,0
2016-11-12T04:07:23.862Z,0
2016-11-12T04:08:36.862Z,0
2016-11-12T04:09:49.899Z,0
2016-11-12T04:11:03.439Z,0
2016-11-12T04:12:16.483Z,0
2016-11-12T04:13:29.488Z,0
2016-11-12T04:14:42.478Z,0
2016-11-12T04:15:54.447Z,0
2016-11-12T04:17:06.991Z,0
2016-11-12T04:18:20.541Z,0
2016-11-12T04:19:33.034Z,0
2016-11-12T04:20:45.626Z,0
2016-11-12T04:21:58.687Z,0
2016-11-12T04:23:12.163Z,0
2016-11-12T04:24:25.163Z,0
2016-11-12T04:25:38.839Z,0
2016-11-12T04:26:51.439Z,0
2016-11-12T04:28:03.982Z,0
2016-11-12T04:29:17.079Z,0
2016-11-12T04:30:30.718Z,0
2016-11-12T04:31:44.233Z,0
2016-11-12T04:32:57.307Z,0
2016-11-12T04:34:10.868Z,0
2016-11-12T04:35:23.438Z,0
2016-11-12T04:36:37.015Z,0
2016-11-12T04:37:50.534Z,0
2016-11-12T04:39:03.101Z,0
2016-11-12T04:40:15.627Z,0
2016-11-12T04:41:29.185Z,0
2016-11-12T04:42:42.790Z,0
2016-11-12T04:43:55.793Z,0
2016-11-12T04:45:09.412Z,0
2016-11-12T04:46:22.466Z,0
2016-11-12T04:47:36.061Z,0
2016-11-12T04:48:49.642Z,0
2016-11-12T04:50:03.178Z,0
2016-11-12T04:51:15.714Z,0
2016-11-12T04:52:28.683Z,0
2016-11-12T04:53:41.699Z,0
2016-11-12T04:54:55.384Z,0
2016-11-12T04:56:08.449Z,0
2016-11-12T04:57:22.018Z,0
2016-11-12T04:58:35.520Z,0
2016-11-12T04:59:48.505Z,0
2016-11-12T05:01:01.612Z,0
2016-11-12T05:02:14.596Z,0
2016-11-12T05:03:27.125Z,0
2016-11-12T05:04:40.147Z,0
2016-11-12T05:05:53.185Z,0
2016-11-12T05:07:05.656Z,0
2016-11-12T05:08:19.267Z,0
2016-11-12T05:09:32.234Z,0
2016-11-12T05:10:45.779Z,0
2016-11-12T05:11:57.757Z,0
2016-11-12T05:13:09.192Z,0
2016-11-12T05:14:22.780Z,0
2016-11-12T05:17:20.441Z,0
2016-11-12T05:18:33.558Z,0
2016-11-12T05:19:45.533Z,0
2016-11-12T05:20:59.228Z,0
2016-11-12T05:22:12.269Z,0
2016-11-12T05:23:25.284Z,0
2016-11-12T05:24:38.280Z,0
2016-11-12T05:25:51.314Z,0
2016-11-12T05:27:04.906Z,0
2016-11-12T05:28:18.521Z,0
2016-11-12T05:29:31.532Z,0
2016-11-12T05:30:45.078Z,0
2016-11-12T05:31:57.629Z,0
2016-11-12T05:33:10.667Z,0
2016-11-12T05:34:24.310Z,0
2016-11-12T05:35:37.343Z,0
2016-11-12T05:36:50.410Z,0
2016-11-12T05:38:03.470Z,0
2016-11-12T05:39:17.039Z,0
2016-11-12T05:40:30.690Z,0
2016-11-12T05:41:43.771Z,0
2016-11-12T05:42:57.336Z,0
2016-11-12T05:44:10.902Z,0
2016-11-12T05:45:23.431Z,0
2016-11-12T05:46:37.013Z,0
2016-11-12T05:47:50.091Z,0
2016-11-12T05:49:02.081Z,0
2016-11-12T05:50:14.600Z,0
2016-11-12T05:51:27.117Z,0
2016-11-12T05:52:39.115Z,0
2016-11-12T05:53:52.594Z,0
2016-11-12T05:55:06.226Z,0
2016-11-12T05:56:19.357Z,0
2016-11-12T05:57:31.894Z,0
2016-11-12T05:58:44.995Z,0
2016-11-12T05:59:58.101Z,0
2016-11-12T06:01:11.050Z,0
2016-11-12T06:02:24.585Z,0
2016-11-12T06:03:37.605Z,0
2016-11-12T06:04:51.271Z,0
2016-11-12T06:06:04.289Z,0
2016-11-12T06:07:17.833Z,0
2016-11-12T06:08:30.323Z,0
2016-11-12T06:09:43.496Z,0
2016-11-12T06:10:56.477Z,0
2016-11-12T06:12:09.008Z,0
2016-11-12T06:13:22.085Z,0
2016-11-12T06:14:35.144Z,0
2016-11-12T06:15:48.711Z,0
2016-11-12T06:17:01.665Z,0
2016-11-12T06:18:15.184Z,0
2016-11-12T06:19:28.264Z,0
2016-11-12T06:20:41.779Z,0
2016-11-12T06:21:54.262Z,0
2016-11-12T06:23:06.784Z,0
2016-11-12T06:24:20.403Z,0
2016-11-12T06:25:32.943Z,0
2016-11-12T06:26:46.054Z,0
2016-11-12T06:27:58.103Z,0
2016-11-12T06:29:11.703Z,0
2016-11-12T06:30:24.761Z,0
2016-11-12T06:31:37.288Z,0
2016-11-12T06:32:49.847Z,0
2016-11-12T06:34:03.393Z,0
2016-11-12T06:35:16.408Z,0
2016-11-12T06:36:29.436Z,0
2016-11-12T06:37:42.345Z,0
2016-11-12T06:38:54.829Z,0
2016-11-12T06:40:08.396Z,0
2016-11-12T06:41:21.531Z,0
2016-11-12T06:42:33.590Z,0
2016-11-12T06:43:46.071Z,0
2016-11-12T06:44:59.083Z,0
2016-11-12T06:46:12.117Z,0
2016-11-12T06:47:25.674Z,0
2016-11-12T06:48:39.339Z,0
2016-11-12T06:49:52.971Z,0
2016-11-12T06:51:06.477Z,0
2016-11-12T06:52:19.461Z,0
2016-11-12T06:53:32.477Z,0
2016-11-12T06:54:46.065Z,0
2016-11-12T06:55:59.647Z,0
2016-11-12T06:57:13.209Z,0
2016-11-12T06:58:26.245Z,0
2016-11-12T06:59:38.693Z,0
2016-11-12T07:00:52.205Z,0
2016-11-12T07:02:05.175Z,0
2016-11-12T07:03:18.730Z,0
2016-11-12T07:04:31.817Z,0
2016-11-12T07:05:45.395Z,0
2016-11-12T07:06:58.388Z,0
2016-11-12T07:08:11.360Z,0
2016-11-12T07:09:24.966Z,0
2016-11-12T07:10:38.013Z,0
2016-11-12T07:11:50.493Z,0
2016-11-12T07:13:03.542Z,0
2016-11-12T07:14:16.621Z,0
2016-11-12T07:15:29.641Z,0
2016-11-12T07:16:42.661Z,0
2016-11-12T07:17:55.215Z,0
2016-11-12T07:19:08.860Z,0
2016-11-12T07:20:22.447Z,0
2016-11-12T07:21:34.926Z,0
2016-11-12T07:22:47.963Z,0
2016-11-12T07:24:01.522Z,0
2016-11-12T07:25:15.135Z,0
2016-11-12T07:26:28.195Z,0
2016-11-12T07:27:41.698Z,0
2016-11-12T07:28:53.660Z,0
2016-11-12T07:30:07.246Z,0
2016-11-12T07:31:19.763Z,0
2016-11-12T07:32:32.848Z,0
2016-11-12T07:33:46.442Z,0
2016-11-12T07:34:59.984Z,0
2016-11-12T07:36:13.559Z,0
2016-11-12T07:37:26.552Z,0
2016-11-12T07:38:39.131Z,0
2016-11-12T07:39:52.611Z,0
2016-11-12T07:41:06.205Z,0
2016-11-12T07:42:18.691Z,0
2016-11-12T07:43:32.294Z,0
2016-11-12T07:44:45.372Z,0
2016-11-12T07:45:58.886Z,0
2016-11-12T07:47:11.897Z,0
2016-11-12T07:48:24.890Z,0
2016-11-12T07:49:38.019Z,0
2016-11-12T07:50:51.601Z,0
2016-11-12T07:52:04.658Z,0
2016-11-12T07:53:17.194Z,0
2016-11-12T07:54:29.159Z,0
2016-11-12T07:55:41.658Z,0
2016-11-12T07:56:54.205Z,0
2016-11-12T07:58:06.713Z,0
2016-11-12T07:59:20.284Z,0
2016-11-12T08:00:33.834Z,0
2016-11-12T08:01:47.342Z,4
2016-11-12T08:03:00.952Z,0
2016-11-12T08:04:13.403Z,4
2016-11-12T08:05:26.945Z,8
2016-11-12T08:06:39.507Z,4
2016-11-12T08:07:53.100Z,8
2016-11-12T08:09:06.084Z,8
2016-11-12T08:10:18.151Z,12
2016-11-12T08:11:31.198Z,12
2016-11-12T08:12:44.280Z,20
2016-11-12T08:13:57.366Z,24
2016-11-12T08:15:10.838Z,28
2016-11-12T08:16:24.457Z,32
2016-11-12T08:17:37.484Z,36
2016-11-12T08:18:50.507Z,36
2016-11-12T08:20:02.980Z,56
2016-11-12T08:21:15.453Z,56
2016-11-12T08:22:27.954Z,68
2016-11-12T08:23:40.945Z,104
2016-11-12T08:24:54.499Z,112
2016-11-12T08:26:07.069Z,124
2016-11-12T08:27:20.625Z,132
2016-11-12T08:28:32.571Z,148
2016-11-12T08:29:45.580Z,188
2016-11-12T08:30:58.565Z,176
2016-11-12T08:32:10.572Z,160
2016-11-12T08:33:23.045Z,220
2016-11-12T08:34:35.613Z,248
2016-11-12T08:35:48.668Z,204
2016-11-12T08:37:01.652Z,232
2016-11-12T08:38:14.653Z,224
2016-11-12T08:39:27.671Z,192
2016-11-12T08:40:40.689Z,288
2016-11-12T08:41:52.634Z,396
2016-11-12T08:43:05.678Z,388
2016-11-12T08:44:18.182Z,328
2016-11-12T08:45:30.780Z,304
2016-11-12T08:46:44.380Z,316
2016-11-12T08:47:56.346Z,364
2016-11-12T08:49:08.860Z,392
2016-11-12T08:50:21.908Z,452
2016-11-12T08:51:34.943Z,488
2016-11-12T08:52:48.512Z,504
2016-11-12T08:54:01.594Z,540
2016-11-12T08:55:14.664Z,608
2016-11-12T08:56:27.166Z,596
2016-11-12T08:57:40.148Z,680
2016-11-12T08:58:53.249Z,724
2016-11-12T09:00:06.349Z,860
2016-11-12T09:01:18.360Z,1056
2016-11-12T09:02:30.903Z,1052
2016-11-12T09:03:43.365Z,1036
2016-11-12T09:04:55.877Z,1020
2016-11-12T09:06:08.870Z,1016
2016-11-12T09:07:21.958Z,968
2016-11-12T09:08:35.028Z,1052
2016-11-12T09:09:48.659Z,1088
2016-11-12T09:11:02.255Z,1132
2016-11-12T09:12:15.807Z,1356
2016-11-12T09:13:28.297Z,1656
2016-11-12T09:14:41.947Z,1600
2016-11-12T09:15:55.493Z,1316
2016-11-12T09:17:09.104Z,1320
2016-11-12T09:18:22.142Z,1228
2016-11-12T09:19:35.662Z,1180
2016-11-12T09:20:48.218Z,1208
2016-11-12T09:22:01.206Z,1168
2016-11-12T09:23:14.245Z,1088
2016-11-12T09:24:27.826Z,1104
2016-11-12T09:25:41.416Z,1076
2016-11-12T09:26:54.938Z,1240
2016-11-12T09:28:06.906Z,1424
2016-11-12T09:29:20.044Z,1652
2016-11-12T09:30:33.841Z,2008
2016-11-12T09:31:47.332Z,3152
2016-11-12T09:32:59.813Z,2996
2016-11-12T09:34:13.370Z,3016
2016-11-12T09:35:25.732Z,2652
2016-11-12T09:36:38.211Z,2540
2016-11-12T09:37:51.635Z,2520
2016-11-12T09:39:04.108Z,3424
2016-11-12T09:40:16.585Z,2696
2016-11-12T09:41:29.573Z,2056
2016-11-12T09:42:43.125Z,2136
2016-11-12T09:43:55.643Z,2284
2016-11-12T09:45:08.163Z,2512
2016-11-12T09:46:21.748Z,2144
2016-11-12T09:47:34.103Z,2156
2016-11-12T09:48:45.460Z,2348
2016-11-12T09:49:58.400Z,2400
2016-11-12T09:51:11.868Z,2356
2016-11-12T09:52:24.868Z,2200
2016-11-12T09:53:36.767Z,2324
2016-11-12T09:54:49.771Z,2200
2016-11-12T09:56:02.760Z,2136
2016-11-12T09:57:15.770Z,2220
2016-11-12T09:58:28.681Z,2456
2016-11-12T09:59:41.705Z,2660
2016-11-12T10:00:54.177Z,2764
2016-11-12T10:02:07.178Z,2376
2016-11-12T10:03:20.172Z,2432
2016-11-12T10:04:32.224Z,2144
2016-11-12T10:05:44.190Z,2064
2016-11-12T10:06:57.651Z,2120
2016-11-12T10:08:10.617Z,2116
2016-11-12T10:09:23.095Z,2312
2016-11-12T10:10:36.026Z,1708
2016-11-12T10:11:49.111Z,1476
2016-11-12T10:13:02.631Z,1600
2016-11-12T10:14:15.592Z,1584
2016-11-12T10:15:28.663Z,1408
2016-11-12T10:16:41.671Z,1504
2016-11-12T10:17:55.225Z,1456
2016-11-12T10:19:08.739Z,1396
2016-11-12T10:20:22.177Z,1444
2016-11-12T10:21:34.631Z,1524
2016-11-12T10:22:47.673Z,1400
2016-11-12T10:24:00.609Z,1492
2016-11-12T10:25:13.700Z,1592
2016-11-12T10:26:27.235Z,1596
2016-11-12T10:27:40.184Z,1624
2016-11-12T10:28:52.124Z,1876
2016-11-12T10:30:05.736Z,2004
2016-11-12T10:31:18.641Z,1868
2016-11-12T10:32:31.668Z,1864
2016-11-12T10:33:44.655Z,2124
2016-11-12T10:34:57.621Z,2380
2016-11-12T10:36:11.099Z,2980
2016-11-12T10:37:24.153Z,3168
2016-11-12T10:38:37.657Z,2804
2016-11-12T10:39:49.583Z,2332
2016-11-12T10:41:03.036Z,2284
2016-11-12T10:42:15.570Z,2224
2016-11-12T10:43:28.577Z,1856
2016-11-12T10:44:41.084Z,1720
2016-11-12T10:45:54.038Z,2052
2016-11-12T10:47:06.974Z,2128
2016-11-12T10:48:20.471Z,2412
2016-11-12T10:49:33.974Z,2660
2016-11-12T10:50:46.899Z,2428
2016-11-12T10:51:59.849Z,2584
2016-11-12T10:53:12.342Z,3140
2016-11-12T10:54:25.395Z,3768
2016-11-12T10:55:38.368Z,4640
2016-11-12T10:56:50.799Z,3860
2016-11-12T10:58:03.836Z,4408
2016-11-12T10:59:16.846Z,4484
2016-11-12T11:00:30.285Z,3872
2016-11-12T11:01:43.326Z,3868
2016-11-12T11:02:56.827Z,3916
2016-11-12T11:04:10.390Z,4076
2016-11-12T11:05:23.352Z,4008
2016-11-12T11:06:36.889Z,3868
2016-11-12T11:07:50.322Z,3832
2016-11-12T11:09:03.273Z,3808
2016-11-12T11:10:16.284Z,3776
2016-11-12T11:11:28.202Z,4080
2016-11-12T11:12:41.685Z,4304
2016-11-12T11:13:54.707Z,4288
2016-11-12T11:15:07.155Z,4192
2016-11-12T11:16:20.699Z,4100
2016-11-12T11:17:34.273Z,4444
2016-11-12T11:18:46.171Z,4476
2016-11-12T11:19:58.637Z,3736
2016-11-12T11:21:11.096Z,4500
2016-11-12T11:22:23.569Z,4644
2016-11-12T11:23:36.012Z,3796
2016-11-12T11:24:49.466Z,3924
2016-11-12T11:26:02.911Z,3984
2016-11-12T11:27:16.396Z,3732
2016-11-12T11:28:29.943Z,4052
2016-11-12T11:29:42.898Z,3616
2016-11-12T11:30:55.793Z,3680
2016-11-12T11:32:07.825Z,3488
2016-11-12T11:33:20.328Z,3836
2016-11-12T11:34:33.751Z,4468
2016-11-12T11:35:47.274Z,3820
2016-11-12T11:36:59.792Z,3520
2016-11-12T11:38:12.717Z,3604
2016-11-12T11:39:25.777Z,4072
2016-11-12T11:40:39.260Z,4152
2016-11-12T11:41:51.707Z,4428
2016-11-12T11:43:05.295Z,3876
2016-11-12T11:44:18.808Z,3424
2016-11-12T11:45:31.785Z,3652
2016-11-12T11:46:44.794Z,4812
2016-11-12T11:47:58.341Z,4624
2016-11-12T11:49:10.775Z,5004
2016-11-12T11:50:23.324Z,4664
2016-11-12T11:51:36.818Z,4476
2016-11-12T11:52:49.729Z,3892
2016-11-12T11:54:03.167Z,3972
2016-11-12T11:55:16.741Z,4228
2016-11-12T11:56:29.215Z,4004
2016-11-12T11:57:41.627Z,3392
2016-11-12T11:58:55.212Z,3340
2016-11-12T12:00:07.705Z,3272
2016-11-12T12:01:21.211Z,2740
2016-11-12T12:02:33.684Z,2744
2016-11-12T12:03:46.686Z,3256
2016-11-12T12:04:59.690Z,2760
2016-11-12T12:06:12.623Z,3100
2016-11-12T12:07:25.634Z,3368
2016-11-12T12:08:38.140Z,4220
2016-11-12T12:09:51.027Z,5420
2016-11-12T12:11:04.600Z,6168
2016-11-12T12:12:17.133Z,6160
2016-11-12T12:13:30.707Z,7464
2016-11-12T12:14:43.166Z,10664
2016-11-12T12:15:56.631Z,11500
2016-11-12T12:17:10.123Z,14892
2016-11-12T12:18:22.547Z,12188
2016-11-12T12:19:34.564Z,17216
2016-11-12T12:20:47.519Z,10044
2016-11-12T12:22:00.528Z,8168
2016-11-12T12:23:13.422Z,6484
2016-11-12T12:24:26.430Z,5636
2016-11-12T12:25:38.946Z,6348
2016-11-12T12:26:52.451Z,5760
2016-11-12T12:28:05.375Z,5636
2016-11-12T12:29:18.278Z,5432
2016-11-12T12:30:30.737Z,5644
2016-11-12T12:31:44.288Z,6292
2016-11-12T12:32:57.722Z,6380
2016-11-12T12:34:11.253Z,5692
2016-11-12T12:35:24.223Z,4828
2016-11-12T12:36:37.174Z,5408
2016-11-12T12:37:50.748Z,5968
2016-11-12T12:39:04.283Z,7096
2016-11-12T12:40:17.728Z,6332
2016-11-12T12:41:30.779Z,6756
2016-11-12T12:42:44.348Z,6012
2016-11-12T12:43:56.834Z,6596
2016-11-12T12:45:09.776Z,6728
2016-11-12T12:46:22.203Z,6824
2016-11-12T12:47:35.709Z,6416
2016-11-12T12:48:49.188Z,6732
2016-11-12T12:50:01.607Z,4996
2016-11-12T12:51:14.617Z,6132
2016-11-12T12:52:27.498Z,6240
2016-11-12T12:53:40.464Z,5092
2016-11-12T12:54:53.474Z,6012
2016-11-12T12:56:06.405Z,5388
2016-11-12T12:57:19.358Z,4104
2016-11-12T12:58:32.900Z,5816
2016-11-12T12:59:45.873Z,6832
2016-11-12T13:00:58.941Z,6288
2016-11-12T13:02:10.832Z,6032
2016-11-12T13:03:23.267Z,6296
2016-11-12T13:04:35.851Z,6508
2016-11-12T13:05:48.278Z,6360
2016-11-12T13:07:00.823Z,4220
2016-11-12T13:08:13.783Z,4484
2016-11-12T13:09:27.293Z,4988
2016-11-12T13:10:40.816Z,5448
2016-11-12T13:11:52.735Z,4956
2016-11-12T13:13:05.706Z,4724
2016-11-12T13:14:19.295Z,4936
2016-11-12T13:15:31.827Z,5420
2016-11-12T13:16:45.333Z,6172
2016-11-12T13:17:58.886Z,5584
2016-11-12T13:19:10.293Z,4456
2016-11-12T13:20:22.240Z,4860
2016-11-12T13:21:35.234Z,5676
2016-11-12T13:22:47.637Z,5380
2016-11-12T13:24:01.213Z,5148
2016-11-12T13:25:14.266Z,5188
2016-11-12T13:26:26.717Z,5568
2016-11-12T13:27:39.188Z,5644
2016-11-12T13:28:51.624Z,5820
2016-11-12T13:30:04.671Z,6724
2016-11-12T13:31:16.564Z,9828
2016-11-12T13:32:29.985Z,8868
2016-11-12T13:33:43.025Z,7920
2016-11-12T13:34:56.017Z,9324
2016-11-12T13:36:09.501Z,8684
2016-11-12T13:37:22.483Z,7744
2016-11-12T13:38:35.516Z,8704
2016-11-12T13:39:48.523Z,9164
2016-11-12T13:41:02.234Z,7280
2016-11-12T13:42:14.629Z,6368
2016-11-12T13:43:27.005Z,7596
2016-11-12T13:44:39.984Z,8824
2016-11-12T13:45:53.473Z,8892
2016-11-12T13:47:06.578Z,7772
2016-11-12T13:48:19.435Z,8044
2016-11-12T13:49:31.847Z,8072
2016-11-12T13:50:43.867Z,8592
2016-11-12T13:51:57.361Z,9512
2016-11-12T13:53:10.881Z,10976
2016-11-12T13:54:23.860Z,10960
2016-11-12T13:55:36.397Z,12936
2016-11-12T13:56:49.371Z,13732
2016-11-12T13:58:01.350Z,14320
2016-11-12T13:59:45.596Z,15372
2016-11-12T14:00:57.571Z,12876
2016-11-12T14:02:10.088Z,12664
2016-11-12T14:03:23.129Z,13604
2016-11-12T14:04:36.690Z,15424
2016-11-12T14:05:50.284Z,15424
2016-11-12T14:07:03.253Z,13716
2016-11-12T14:08:16.941Z,14156
2016-11-12T14:09:29.447Z,13392
2016-11-12T14:10:42.947Z,14540
2016-11-12T14:12:27.578Z,15644
2016-11-12T14:13:41.111Z,17312
2016-11-12T14:14:53.045Z,18432
2016-11-12T14:16:06.013Z,18464
2016-11-12T14:17:19.582Z,14932
2016-11-12T14:18:32.044Z,17312
2016-11-12T14:19:45.080Z,17312
2016-11-12T14:20:57.540Z,19264
2016-11-12T14:22:11.158Z,15648
2016-11-12T14:23:24.669Z,11544
2016-11-12T14:24:51.789Z,13608
2016-11-12T14:26:05.191Z,12244
2016-11-12T14:27:18.165Z,10464
2016-11-12T14:28:31.666Z,10972
2016-11-12T14:29:45.910Z,13612
2016-11-12T14:30:57.951Z,11320
2016-11-12T14:32:10.520Z,13536
2016-11-12T14:33:23.558Z,15428
2016-11-12T14:34:37.043Z,14236
2016-11-12T14:35:50.586Z,15016
2016-11-12T14:37:03.602Z,15700
2016-11-12T14:38:16.110Z,13612
2016-11-12T14:39:29.114Z,12996
2016-11-12T14:40:42.160Z,12612
2016-11-12T14:41:55.718Z,13852
2016-11-12T14:43:09.290Z,15272
2016-11-12T14:44:24.121Z,13600
2016-11-12T14:45:37.486Z,13664
2016-11-12T14:46:51.088Z,12660
2016-11-12T14:48:04.565Z,12776
2016-11-12T14:49:17.644Z,12616
2016-11-12T14:50:29.946Z,12132
2016-11-12T14:51:42.980Z,13156
2016-11-12T14:52:56.566Z,13740
2016-11-12T14:54:10.098Z,12156
2016-11-12T14:55:22.618Z,13568
2016-11-12T14:56:35.619Z,14648
2016-11-12T14:57:48.100Z,12984
2016-11-12T14:59:01.595Z,13488
2016-11-12T15:00:14.675Z,13600
2016-11-12T15:01:29.620Z,14960
2016-11-12T15:02:43.745Z,15392
2016-11-12T15:03:57.257Z,17824
2016-11-12T15:05:09.330Z,17856
2016-11-12T15:08:07.640Z,17056
2016-11-12T15:09:20.213Z,14036
2016-11-12T15:10:33.322Z,14440
2016-11-12T15:11:45.897Z,17632
2016-11-12T15:12:58.934Z,14320
2016-11-12T15:14:11.925Z,13464
2016-11-12T15:15:25.491Z,13896
2016-11-12T15:16:38.564Z,13900
2016-11-12T15:17:51.614Z,13488
2016-11-12T15:19:05.191Z,11052
2016-11-12T15:20:18.203Z,10600
2016-11-12T15:21:31.743Z,11464
2016-11-12T15:22:45.280Z,10656
2016-11-12T15:23:57.246Z,8752
2016-11-12T15:25:10.786Z,10200
2016-11-12T15:26:23.819Z,9044
2016-11-12T15:27:36.853Z,8552
2016-11-12T15:28:50.366Z,10260
2016-11-12T15:30:03.946Z,9824
2016-11-12T15:31:17.500Z,11240
2016-11-12T15:32:31.069Z,11848
2016-11-12T15:33:44.570Z,15424
2016-11-12T15:34:58.122Z,13844
2016-11-12T15:36:11.228Z,14780
2016-11-12T15:37:23.712Z,14544
2016-11-12T15:38:36.780Z,12720
2016-11-12T15:39:49.798Z,13100
2016-11-12T15:41:02.355Z,12592
2016-11-12T15:42:15.431Z,12500
2016-11-12T15:43:28.514Z,12552
2016-11-12T15:44:41.524Z,10588
2016-11-12T15:45:55.152Z,9312
2016-11-12T15:47:08.189Z,10096
2016-11-12T15:48:20.731Z,10340
2016-11-12T15:49:33.278Z,9808
2016-11-12T15:50:46.356Z,10140
2016-11-12T15:51:59.422Z,8848
2016-11-12T15:53:13.066Z,8116
2016-11-12T15:54:26.144Z,8940
2016-11-12T15:55:39.156Z,11792
2016-11-12T15:56:52.224Z,9924
2016-11-12T15:58:05.240Z,9476
2016-11-12T15:59:18.279Z,9148
2016-11-12T16:00:31.314Z,8304
2016-11-12T16:01:44.339Z,8692
2016-11-12T16:02:56.805Z,6828
2016-11-12T16:04:10.307Z,7548
2016-11-12T16:07:07.477Z,12184
2016-11-12T16:08:20.552Z,12832
2016-11-12T16:09:34.151Z,14344
2016-11-12T16:10:46.596Z,13248
2016-11-12T16:12:00.240Z,12564
2016-11-12T16:13:13.866Z,10428
2016-11-12T16:14:26.382Z,9884
2016-11-12T16:15:38.331Z,10584
2016-11-12T16:16:51.854Z,10412
2016-11-12T16:18:04.949Z,11288
2016-11-12T16:19:17.537Z,10972
2016-11-12T16:20:30.561Z,10436
2016-11-12T16:21:43.073Z,9264
2016-11-12T16:22:56.595Z,8552
2016-11-12T16:24:09.032Z,7976
2016-11-12T16:25:22.584Z,7960
2016-11-12T16:26:36.120Z,8400
2016-11-12T16:27:49.659Z,8256
2016-11-12T16:29:03.305Z,8316
2016-11-12T16:30:15.839Z,8252
2016-11-12T16:31:29.444Z,7716
2016-11-12T16:32:43.073Z,9180
2016-11-12T16:33:56.581Z,11236
2016-11-12T16:35:09.677Z,10380
2016-11-12T16:36:22.743Z,10664
2016-11-12T16:37:35.850Z,9724
2016-11-12T16:38:49.418Z,10424
2016-11-12T16:40:01.893Z,8500
2016-11-12T16:41:14.455Z,9188
2016-11-12T16:42:27.451Z,9984
2016-11-12T16:43:41.129Z,12304
2016-11-12T16:44:53.609Z,11472
2016-11-12T16:46:07.197Z,10436
2016-11-12T16:47:20.751Z,10132
2016-11-12T16:48:33.783Z,12028
2016-11-12T16:49:46.868Z,9404
2016-11-12T16:50:58.353Z,10288
2016-11-12T16:52:10.392Z,9420
2016-11-12T16:53:23.451Z,8688
2016-11-12T16:54:36.554Z,8960
2016-11-12T16:55:50.772Z,7652
2016-11-12T16:57:03.866Z,7656
2016-11-12T16:58:15.846Z,6532
2016-11-12T16:59:28.889Z,6372
2016-11-12T17:00:41.918Z,7856
2016-11-12T17:02:26.593Z,8588
2016-11-12T17:03:39.653Z,7628
2016-11-12T17:04:52.716Z,7884
2016-11-12T17:06:06.270Z,11176